Check out our new PWSWeather beta!
PWSweather.com
Personal Weather Stations
Station Observations
PENICUIKWS
PenicuikGB

PenicuikGB

Lat: 55.830932, Lon: -3.224533000000065

Elevation: 166

Station Type: Fine Offset

http://weather.penicuik.org

High Low Average
Temperature 75.2°F24.0°C 55.2°F12.9°C 62.9°F17.2°C
Dew Point 64.4°F18.0°C 53.5°F11.9°C 58.2°F14.6°C
Winds 3.4 mph 5.5 kmh Calm Calm 1.0 mph SE1.6 kmh SE
Wind Gusts 6.0 mph9.7 kmh -- 2.0 mph3.2 kmh
Humidity 99% 55% 86%
Pressure 30.25 in1024.4 mb 30.15 in1021.0 mb -
Precipitation 0.19 in4.8 mm - -
Hour Temp Dew Point Humidity Winds Wind Gusts Pressure Precip Precip Rate Daily Precip Total
12:00 AM 55.2°F12.9°C 53.5°F11.9°C 94% 0.1 mph E0.2 kmh E 0.7 mph1.1 kmh 30.25 in1024.4 mb 0.00 in0.0 mm 0.00 in0.0 mm 0.00 in0.0 mm
12:15 AM 55.6°F13.1°C 54.2°F12.3°C 95% 0.5 mph SE0.8 kmh SE 2.2 mph3.5 kmh 30.25 in1024.4 mb 0.00 in0.0 mm 0.00 in0.0 mm 0.00 in0.0 mm
12:30 AM 55.8°F13.2°C 54.4°F12.4°C 95% Calm Calm -- 30.24 in1024.0 mb 0.00 in0.0 mm 0.00 in0.0 mm 0.00 in0.0 mm
12:45 AM 55.6°F13.1°C 54.2°F12.3°C 95% 0.1 mph SSW0.2 kmh SSW 0.7 mph1.1 kmh 30.25 in1024.4 mb 0.00 in0.0 mm 0.00 in0.0 mm 0.00 in0.0 mm
01:00 AM 55.6°F13.1°C 53.9°F12.2°C 94% Calm Calm -- 30.24 in1024.0 mb 0.00 in0.0 mm 0.00 in0.0 mm 0.00 in0.0 mm
01:15 AM 55.6°F13.1°C 53.9°F12.2°C 94% Calm Calm -- 30.25 in1024.4 mb 0.00 in0.0 mm 0.00 in0.0 mm 0.00 in0.0 mm
01:30 AM 55.6°F13.1°C 54.2°F12.3°C 95% 0.3 mph NNW0.5 kmh NNW 1.6 mph2.6 kmh 30.24 in1024.0 mb 0.00 in0.0 mm 0.00 in0.0 mm 0.00 in0.0 mm
01:45 AM 55.8°F13.2°C 54.4°F12.4°C 95% 0.4 mph S0.6 kmh S 1.6 mph2.6 kmh 30.23 in1023.7 mb 0.00 in0.0 mm 0.00 in0.0 mm 0.00 in0.0 mm
02:00 AM 55.9°F13.3°C 54.5°F12.5°C 95% Calm Calm -- 30.23 in1023.7 mb 0.00 in0.0 mm 0.00 in0.0 mm 0.00 in0.0 mm
02:15 AM 55.9°F13.3°C 54.5°F12.5°C 95% Calm Calm -- 30.23 in1023.7 mb 0.00 in0.0 mm 0.00 in0.0 mm 0.00 in0.0 mm
02:30 AM 55.9°F13.3°C 54.5°F12.5°C 95% Calm Calm -- 30.24 in1024.0 mb 0.00 in0.0 mm 0.00 in0.0 mm 0.00 in0.0 mm
02:45 AM 56.1°F13.4°C 54.7°F12.6°C 95% Calm Calm -- 30.23 in1023.7 mb 0.00 in0.0 mm 0.00 in0.0 mm 0.00 in0.0 mm
03:00 AM 56.3°F13.5°C 54.9°F12.7°C 95% Calm Calm -- 30.24 in1024.0 mb 0.00 in0.0 mm 0.00 in0.0 mm 0.00 in0.0 mm
03:15 AM 56.3°F13.5°C 54.9°F12.7°C 95% Calm Calm -- 30.23 in1023.7 mb 0.00 in0.0 mm 0.00 in0.0 mm 0.00 in0.0 mm
03:30 AM 56.5°F13.6°C 55.1°F12.8°C 95% 0.1 mph N0.2 kmh N 0.7 mph1.1 kmh 30.23 in1023.7 mb 0.00 in0.0 mm 0.00 in0.0 mm 0.00 in0.0 mm
03:45 AM 56.7°F13.7°C 55.3°F12.9°C 95% 0.1 mph N0.2 kmh N 0.7 mph1.1 kmh 30.23 in1023.7 mb 0.00 in0.0 mm 0.00 in0.0 mm 0.00 in0.0 mm
04:00 AM 56.7°F13.7°C 55.3°F12.9°C 95% Calm Calm -- 30.23 in1023.7 mb 0.00 in0.0 mm 0.00 in0.0 mm 0.00 in0.0 mm
04:15 AM 56.8°F13.8°C 55.4°F13.0°C 95% 0.1 mph NE0.2 kmh NE 0.7 mph1.1 kmh 30.23 in1023.7 mb 0.00 in0.0 mm 0.00 in0.0 mm 0.00 in0.0 mm
04:30 AM 56.8°F13.8°C 55.4°F13.0°C 95% Calm Calm -- 30.22 in1023.4 mb 0.00 in0.0 mm 0.00 in0.0 mm 0.00 in0.0 mm
04:45 AM 57.0°F13.9°C 55.3°F12.9°C 94% Calm Calm -- 30.22 in1023.4 mb 0.00 in0.0 mm 0.00 in0.0 mm 0.00 in0.0 mm
05:00 AM 57.2°F14.0°C 55.2°F12.9°C 93% Calm Calm -- 30.23 in1023.7 mb 0.00 in0.0 mm 0.00 in0.0 mm 0.00 in0.0 mm
05:15 AM 57.6°F14.2°C 55.6°F13.1°C 93% Calm Calm -- 30.22 in1023.4 mb 0.00 in0.0 mm 0.00 in0.0 mm 0.00 in0.0 mm
05:30 AM 57.9°F14.4°C 55.9°F13.3°C 93% Calm Calm -- 30.22 in1023.4 mb 0.00 in0.0 mm 0.00 in0.0 mm 0.00 in0.0 mm
05:45 AM 58.8°F14.9°C 56.5°F13.6°C 92% Calm Calm -- 30.22 in1023.4 mb 0.00 in0.0 mm 0.00 in0.0 mm 0.00 in0.0 mm
06:00 AM 59.4°F15.2°C 56.7°F13.7°C 91% Calm Calm -- 30.22 in1023.4 mb 0.00 in0.0 mm 0.00 in0.0 mm 0.00 in0.0 mm
06:15 AM 60.1°F15.6°C 56.8°F13.8°C 89% Calm Calm -- 30.22 in1023.4 mb 0.00 in0.0 mm 0.00 in0.0 mm 0.00 in0.0 mm
06:30 AM 60.1°F15.6°C 56.2°F13.4°C 87% Calm Calm -- 30.22 in1023.4 mb 0.00 in0.0 mm 0.00 in0.0 mm 0.00 in0.0 mm
06:45 AM 61.0°F16.1°C 56.8°F13.8°C 86% 0.1 mph SE0.2 kmh SE 0.7 mph1.1 kmh 30.23 in1023.7 mb 0.00 in0.0 mm 0.00 in0.0 mm 0.00 in0.0 mm
07:00 AM 61.7°F16.5°C 56.8°F13.8°C 84% 0.6 mph SE1.0 kmh SE 2.2 mph3.5 kmh 30.22 in1023.4 mb 0.00 in0.0 mm 0.00 in0.0 mm 0.00 in0.0 mm
07:15 AM 62.8°F17.1°C 56.2°F13.4°C 79% 1.5 mph SSE2.4 kmh SSE 2.2 mph3.5 kmh 30.22 in1023.4 mb 0.00 in0.0 mm 0.00 in0.0 mm 0.00 in0.0 mm
07:30 AM 65.1°F18.4°C 56.6°F13.7°C 74% 2.1 mph S3.4 kmh S 3.1 mph5.0 kmh 30.22 in1023.4 mb 0.00 in0.0 mm 0.00 in0.0 mm 0.00 in0.0 mm
07:45 AM 66.0°F18.9°C 56.8°F13.8°C 72% 2.0 mph S3.2 kmh S 3.1 mph5.0 kmh 30.22 in1023.4 mb 0.00 in0.0 mm 0.00 in0.0 mm 0.00 in0.0 mm
08:00 AM 65.5°F18.6°C 57.0°F13.9°C 74% 1.7 mph S2.7 kmh S 3.1 mph5.0 kmh 30.22 in1023.4 mb 0.00 in0.0 mm 0.00 in0.0 mm 0.00 in0.0 mm
08:15 AM 66.7°F19.3°C 57.8°F14.3°C 73% 0.7 mph SE1.1 kmh SE 1.6 mph2.6 kmh 30.22 in1023.4 mb 0.00 in0.0 mm 0.00 in0.0 mm 0.00 in0.0 mm
08:30 AM 70.0°F21.1°C 59.0°F15.0°C 68% 1.7 mph NNE2.7 kmh NNE 2.2 mph3.5 kmh 30.22 in1023.4 mb 0.00 in0.0 mm 0.00 in0.0 mm 0.00 in0.0 mm
08:45 AM 71.2°F21.8°C 58.0°F14.4°C 63% 2.0 mph WSW3.2 kmh WSW 3.1 mph5.0 kmh 30.21 in1023.0 mb 0.00 in0.0 mm 0.00 in0.0 mm 0.00 in0.0 mm
09:00 AM 69.8°F21.0°C 58.0°F14.4°C 66% 1.7 mph NE2.7 kmh NE 3.1 mph5.0 kmh 30.21 in1023.0 mb 0.00 in0.0 mm 0.00 in0.0 mm 0.00 in0.0 mm
09:15 AM 70.0°F21.1°C 58.1°F14.5°C 66% 1.9 mph ESE3.1 kmh ESE 3.8 mph6.1 kmh 30.21 in1023.0 mb 0.00 in0.0 mm 0.00 in0.0 mm 0.00 in0.0 mm
09:30 AM 67.3°F19.6°C 57.6°F14.2°C 71% 2.2 mph NNE3.5 kmh NNE 3.1 mph5.0 kmh 30.21 in1023.0 mb 0.00 in0.0 mm 0.00 in0.0 mm 0.00 in0.0 mm
09:45 AM 68.0°F20.0°C 58.3°F14.6°C 71% 2.0 mph NE3.2 kmh NE 3.1 mph5.0 kmh 30.22 in1023.4 mb 0.00 in0.0 mm 0.00 in0.0 mm 0.00 in0.0 mm
10:00 AM 70.0°F21.1°C 59.0°F15.0°C 68% 3.3 mph NE5.3 kmh NE 4.5 mph7.2 kmh 30.21 in1023.0 mb 0.00 in0.0 mm 0.00 in0.0 mm 0.00 in0.0 mm
10:15 AM 72.9°F22.7°C 57.7°F14.3°C 59% 3.2 mph N5.1 kmh N 6.0 mph9.7 kmh 30.20 in1022.7 mb 0.00 in0.0 mm 0.00 in0.0 mm 0.00 in0.0 mm
10:30 AM 73.9°F23.3°C 58.7°F14.8°C 59% 3.4 mph NNE5.5 kmh NNE 5.4 mph8.7 kmh 30.21 in1023.0 mb 0.00 in0.0 mm 0.00 in0.0 mm 0.00 in0.0 mm
10:45 AM 71.2°F21.8°C 56.2°F13.4°C 59% 3.3 mph SSW5.3 kmh SSW 6.0 mph9.7 kmh 30.20 in1022.7 mb 0.00 in0.0 mm 0.00 in0.0 mm 0.00 in0.0 mm
11:00 AM 71.2°F21.8°C 56.7°F13.7°C 60% 2.0 mph SE3.2 kmh SE 3.8 mph6.1 kmh 30.20 in1022.7 mb 0.00 in0.0 mm 0.00 in0.0 mm 0.00 in0.0 mm
11:15 AM 72.7°F22.6°C 57.1°F13.9°C 58% 2.3 mph SE3.7 kmh SE 4.5 mph7.2 kmh 30.20 in1022.7 mb 0.00 in0.0 mm 0.00 in0.0 mm 0.00 in0.0 mm
11:30 AM 72.7°F22.6°C 57.1°F13.9°C 58% 2.6 mph SSW4.2 kmh SSW 4.5 mph7.2 kmh 30.20 in1022.7 mb 0.00 in0.0 mm 0.00 in0.0 mm 0.00 in0.0 mm
11:45 AM 72.7°F22.6°C 57.6°F14.2°C 59% 2.3 mph NW3.7 kmh NW 3.1 mph5.0 kmh 30.20 in1022.7 mb 0.00 in0.0 mm 0.00 in0.0 mm 0.00 in0.0 mm
12:00 PM 75.2°F24.0°C 58.0°F14.4°C 55% 1.8 mph S2.9 kmh S 3.8 mph6.1 kmh 30.19 in1022.4 mb 0.00 in0.0 mm 0.00 in0.0 mm 0.00 in0.0 mm
12:15 PM 72.7°F22.6°C 57.6°F14.2°C 59% 2.2 mph NE3.5 kmh NE 3.8 mph6.1 kmh 30.20 in1022.7 mb 0.00 in0.0 mm 0.00 in0.0 mm 0.00 in0.0 mm
12:30 PM 71.2°F21.8°C 58.5°F14.7°C 64% 2.5 mph NNE4.0 kmh NNE 3.8 mph6.1 kmh 30.19 in1022.4 mb 0.00 in0.0 mm 0.00 in0.0 mm 0.00 in0.0 mm
12:45 PM 68.7°F20.4°C 58.6°F14.8°C 70% 1.6 mph N2.6 kmh N 2.2 mph3.5 kmh 30.19 in1022.4 mb 0.00 in0.0 mm 0.00 in0.0 mm 0.00 in0.0 mm
01:00 PM 67.1°F19.5°C 58.2°F14.6°C 73% 0.8 mph SW1.3 kmh SW 1.6 mph2.6 kmh 30.20 in1022.7 mb 0.00 in0.0 mm 0.00 in0.0 mm 0.00 in0.0 mm
01:15 PM 64.6°F18.1°C 59.3°F15.2°C 83% 0.4 mph SW0.6 kmh SW 1.6 mph2.6 kmh 30.20 in1022.7 mb 0.09 in2.3 mm 0.36 in9.1 mm 0.09 in2.3 mm
01:30 PM 64.2°F17.9°C 60.6°F15.9°C 88% 0.8 mph N1.3 kmh N 1.6 mph2.6 kmh 30.20 in1022.7 mb 0.14 in3.6 mm 0.20 in5.1 mm 0.14 in3.6 mm
01:45 PM 65.8°F18.8°C 63.5°F17.5°C 92% 0.8 mph SE1.3 kmh SE 1.6 mph2.6 kmh 30.19 in1022.4 mb 0.15 in3.8 mm 0.04 in1.0 mm 0.15 in3.8 mm
02:00 PM 65.8°F18.8°C 63.5°F17.5°C 92% 2.1 mph N3.4 kmh N 3.8 mph6.1 kmh 30.20 in1022.7 mb 0.14 in3.6 mm 0.00 in0.0 mm 0.15 in3.8 mm
02:15 PM 68.4°F20.2°C 64.4°F18.0°C 87% 0.8 mph N1.3 kmh N 2.2 mph3.5 kmh 30.19 in1022.4 mb 0.05 in1.3 mm 0.00 in0.0 mm 0.15 in3.8 mm
02:30 PM 67.5°F19.7°C 62.5°F16.9°C 84% 0.7 mph N1.1 kmh N 1.6 mph2.6 kmh 30.19 in1022.4 mb 0.01 in0.3 mm 0.00 in0.0 mm 0.15 in3.8 mm
02:45 PM 67.3°F19.6°C 63.0°F17.2°C 86% 0.2 mph NE0.3 kmh NE 0.7 mph1.1 kmh 30.20 in1022.7 mb 0.00 in0.0 mm 0.00 in0.0 mm 0.15 in3.8 mm
03:00 PM 66.7°F19.3°C 62.8°F17.1°C 87% 0.3 mph SSW0.5 kmh SSW 0.7 mph1.1 kmh 30.19 in1022.4 mb 0.00 in0.0 mm 0.00 in0.0 mm 0.15 in3.8 mm
03:15 PM 66.6°F19.2°C 62.9°F17.2°C 88% 0.4 mph SW0.6 kmh SW 1.6 mph2.6 kmh 30.19 in1022.4 mb 0.00 in0.0 mm 0.00 in0.0 mm 0.15 in3.8 mm
03:30 PM 65.8°F18.8°C 62.5°F16.9°C 89% 0.7 mph NW1.1 kmh NW 2.2 mph3.5 kmh 30.18 in1022.0 mb 0.00 in0.0 mm 0.00 in0.0 mm 0.15 in3.8 mm
03:45 PM 65.1°F18.4°C 62.1°F16.7°C 90% 0.7 mph NW1.1 kmh NW 2.2 mph3.5 kmh 30.17 in1021.7 mb 0.00 in0.0 mm 0.00 in0.0 mm 0.15 in3.8 mm
04:00 PM 65.1°F18.4°C 62.8°F17.1°C 92% 0.7 mph S1.1 kmh S 1.6 mph2.6 kmh 30.18 in1022.0 mb 0.01 in0.3 mm 0.01 in0.3 mm 0.17 in4.3 mm
04:15 PM 65.3°F18.5°C 62.9°F17.2°C 92% 1.6 mph SE2.6 kmh SE 3.1 mph5.0 kmh 30.17 in1021.7 mb 0.01 in0.3 mm 0.00 in0.0 mm 0.17 in4.3 mm
04:30 PM 66.4°F19.1°C 63.4°F17.4°C 90% 0.6 mph SW1.0 kmh SW 1.6 mph2.6 kmh 30.16 in1021.3 mb 0.01 in0.3 mm 0.00 in0.0 mm 0.17 in4.3 mm
04:45 PM 67.3°F19.6°C 64.3°F17.9°C 90% 0.9 mph SSW1.4 kmh SSW 1.6 mph2.6 kmh 30.17 in1021.7 mb 0.01 in0.3 mm 0.00 in0.0 mm 0.17 in4.3 mm
05:00 PM 67.5°F19.7°C 64.1°F17.8°C 89% 0.5 mph WNW0.8 kmh WNW 1.6 mph2.6 kmh 30.16 in1021.3 mb 0.00 in0.0 mm 0.00 in0.0 mm 0.17 in4.3 mm
05:15 PM 66.9°F19.4°C 63.3°F17.4°C 88% 0.4 mph NW0.6 kmh NW 1.6 mph2.6 kmh 30.16 in1021.3 mb 0.00 in0.0 mm 0.00 in0.0 mm 0.17 in4.3 mm
05:30 PM 66.9°F19.4°C 63.6°F17.6°C 89% 0.4 mph WNW0.6 kmh WNW 0.7 mph1.1 kmh 30.15 in1021.0 mb 0.00 in0.0 mm 0.00 in0.0 mm 0.17 in4.3 mm
05:45 PM 66.6°F19.2°C 63.2°F17.3°C 89% 0.1 mph NNW0.2 kmh NNW 0.7 mph1.1 kmh 30.15 in1021.0 mb 0.00 in0.0 mm 0.00 in0.0 mm 0.17 in4.3 mm
06:00 PM 65.7°F18.7°C 62.7°F17.1°C 90% 1.7 mph WSW2.7 kmh WSW 3.1 mph5.0 kmh 30.16 in1021.3 mb 0.00 in0.0 mm 0.00 in0.0 mm 0.17 in4.3 mm
06:15 PM 64.8°F18.2°C 61.5°F16.4°C 89% 1.3 mph WSW2.1 kmh WSW 3.1 mph5.0 kmh 30.15 in1021.0 mb 0.00 in0.0 mm 0.00 in0.0 mm 0.17 in4.3 mm
06:30 PM 64.0°F17.8°C 60.8°F16.0°C 89% 1.3 mph SSE2.1 kmh SSE 2.2 mph3.5 kmh 30.16 in1021.3 mb 0.00 in0.0 mm 0.00 in0.0 mm 0.17 in4.3 mm
06:45 PM 63.9°F17.7°C 60.9°F16.1°C 90% 0.9 mph SSE1.4 kmh SSE 2.2 mph3.5 kmh 30.16 in1021.3 mb 0.00 in0.0 mm 0.00 in0.0 mm 0.17 in4.3 mm
07:00 PM 63.3°F17.4°C 60.4°F15.8°C 90% 0.3 mph W0.5 kmh W 0.7 mph1.1 kmh 30.16 in1021.3 mb 0.00 in0.0 mm 0.00 in0.0 mm 0.17 in4.3 mm
07:15 PM 63.0°F17.2°C 60.3°F15.7°C 91% 0.1 mph WSW0.2 kmh WSW 0.7 mph1.1 kmh 30.15 in1021.0 mb 0.00 in0.0 mm 0.00 in0.0 mm 0.17 in4.3 mm
07:30 PM 62.8°F17.1°C 60.1°F15.6°C 91% Calm Calm -- 30.15 in1021.0 mb 0.00 in0.0 mm 0.00 in0.0 mm 0.17 in4.3 mm
07:45 PM 62.6°F17.0°C 60.3°F15.7°C 92% 0.1 mph N0.2 kmh N 0.7 mph1.1 kmh 30.15 in1021.0 mb 0.00 in0.0 mm 0.00 in0.0 mm 0.17 in4.3 mm
08:00 PM 62.4°F16.9°C 60.4°F15.8°C 93% 0.7 mph SW1.1 kmh SW 2.2 mph3.5 kmh 30.16 in1021.3 mb 0.01 in0.3 mm 0.01 in0.3 mm 0.18 in4.6 mm
08:15 PM 62.1°F16.7°C 60.3°F15.7°C 94% 0.1 mph NW0.2 kmh NW 0.7 mph1.1 kmh 30.15 in1021.0 mb 0.01 in0.3 mm 0.00 in0.0 mm 0.18 in4.6 mm
08:30 PM 61.7°F16.5°C 60.0°F15.6°C 94% Calm Calm -- 30.15 in1021.0 mb 0.01 in0.3 mm 0.00 in0.0 mm 0.18 in4.6 mm
08:45 PM 61.3°F16.3°C 59.6°F15.3°C 94% Calm Calm -- 30.16 in1021.3 mb 0.01 in0.3 mm 0.00 in0.0 mm 0.18 in4.6 mm
09:00 PM 60.3°F15.7°C 58.8°F14.9°C 95% Calm Calm -- 30.16 in1021.3 mb 0.00 in0.0 mm 0.00 in0.0 mm 0.18 in4.6 mm
09:15 PM 59.7°F15.4°C 58.3°F14.6°C 95% Calm Calm -- 30.16 in1021.3 mb 0.01 in0.3 mm 0.04 in1.0 mm 0.19 in4.8 mm
09:30 PM 59.4°F15.2°C 57.9°F14.4°C 95% Calm Calm -- 30.15 in1021.0 mb 0.01 in0.3 mm 0.00 in0.0 mm 0.19 in4.8 mm
09:45 PM 58.6°F14.8°C 57.8°F14.3°C 97% Calm Calm -- 30.16 in1021.3 mb 0.01 in0.3 mm 0.00 in0.0 mm 0.19 in4.8 mm
10:00 PM 58.1°F14.5°C 57.3°F14.1°C 97% 0.4 mph WSW0.6 kmh WSW 1.6 mph2.6 kmh 30.16 in1021.3 mb 0.01 in0.3 mm 0.00 in0.0 mm 0.19 in4.8 mm
10:15 PM 57.6°F14.2°C 56.7°F13.7°C 97% 0.2 mph NW0.3 kmh NW 0.7 mph1.1 kmh 30.16 in1021.3 mb 0.00 in0.0 mm 0.00 in0.0 mm 0.19 in4.8 mm
10:30 PM 57.2°F14.0°C 56.4°F13.6°C 97% 0.2 mph SW0.3 kmh SW 0.7 mph1.1 kmh 30.16 in1021.3 mb 0.00 in0.0 mm 0.00 in0.0 mm 0.19 in4.8 mm
10:45 PM 57.2°F14.0°C 56.4°F13.6°C 97% 0.3 mph NNW0.5 kmh NNW 0.7 mph1.1 kmh 30.16 in1021.3 mb 0.00 in0.0 mm 0.00 in0.0 mm 0.19 in4.8 mm
11:00 PM 57.2°F14.0°C 56.4°F13.6°C 97% Calm Calm -- 30.16 in1021.3 mb 0.00 in0.0 mm 0.00 in0.0 mm 0.18 in4.6 mm
11:15 PM 57.0°F13.9°C 56.8°F13.8°C 99% 0.1 mph NW0.2 kmh NW 0.7 mph1.1 kmh 30.16 in1021.3 mb 0.00 in0.0 mm 0.00 in0.0 mm 0.18 in4.6 mm
11:30 PM 56.8°F13.8°C 56.6°F13.7°C 99% 0.2 mph NW0.3 kmh NW 0.7 mph1.1 kmh 30.15 in1021.0 mb 0.00 in0.0 mm 0.00 in0.0 mm 0.18 in4.6 mm
11:45 PM 56.5°F13.6°C 56.2°F13.4°C 99% 0.4 mph SW0.6 kmh SW 2.2 mph3.5 kmh 30.15 in1021.0 mb 0.00 in0.0 mm 0.00 in0.0 mm 0.18 in4.6 mm